Time;durP1;ratioP1;P1;durP2;ratioP2;P2;SDS_P1;SDS_P2;PMS_P1;PMS_P2;Temp;Humidity;BMP_temperature;BMP_pressure;BME280_temperature;BME280_humidity;BME280_pressure;Samples;Min_cycle;Max_cycle;Signal;HPM_P1;HPM_P2
2022/01/23 00:00:02;;;;;;;;;;;;;;;21.98;15.78;97900.63;5052965;28;1860;-72
2022/01/23 00:02:35;;;;;;;;;;;;;;;22.04;15.84;97903.69;5053269;28;761;-72
2022/01/23 00:05:06;;;;;;;;;;;;;;;22.30;15.76;97908.19;5058041;28;893;-72
2022/01/23 00:07:32;;;;;;;;;;;;;;;21.83;16.32;97913.63;5059868;28;1992;-72
2022/01/23 00:09:58;;;;;;;;;;;;;;;22.16;15.77;97911.44;5020198;28;974;-72
2022/01/23 00:12:26;;;;;;;;;;;;;;;22.31;15.88;97921.09;5000172;28;1002;-72
2022/01/23 00:17:35;;;;;;;;;;;;;;;22.32;15.71;97928.34;5000183;28;839;-72
2022/01/23 00:20:05;;;;;;;;;;;;;;;22.55;15.29;97918.75;4983920;28;899;-72
2022/01/23 00:30:34;;;;;;;;;;;;;;;22.29;15.67;97917.94;4914498;29;952;-72
2022/01/23 00:33:00;;;;;;;;;;;;;;;22.11;15.86;97914.84;4938717;29;1149;-71
2022/01/23 00:35:26;;;;;;;;;;;;;;;22.33;15.78;97918.63;4907285;29;1255;-72
2022/01/23 00:37:51;;;;;;;;;;;;;;;22.56;15.15;97916.72;4885229;29;1071;-72
2022/01/23 00:40:17;;;;;;;;;;;;;;;22.12;15.80;97924.94;4889798;29;885;-71
2022/01/23 00:42:42;;;;;;;;;;;;;;;22.41;15.72;97929.75;4911749;29;1133;-72
2022/01/23 00:47:36;;;;;;;;;;;;;;;22.40;15.65;97931.00;4903614;29;1915;-71
2022/01/23 00:50:03;;;;;;;;;;;;;;;22.48;15.63;97929.50;4904167;29;936;-72
2022/01/23 00:52:30;;;;;;;;;;;;;;;21.92;16.04;97921.47;4905752;29;1039;-72
2022/01/23 00:54:55;;;;;;;;;;;;;;;22.17;15.88;97932.06;4922018;29;1035;-71
2022/01/23 00:57:21;;;;;;;;;;;;;;;22.44;15.73;97923.19;4904175;29;857;-72
2022/01/23 00:59:46;;;;;;;;;;;;;;;22.05;15.90;97920.25;4927466;29;1328;-71
2022/01/23 01:02:12;;;;;;;;;;;;;;;21.50;16.21;97919.41;4939367;29;1262;-71
2022/01/23 01:04:37;;;;;;;;;;;;;;;22.54;15.32;97919.22;4971513;28;1231;-72
2022/01/23 01:07:03;;;;;;;;;;;;;;;22.29;15.55;97909.44;4980922;28;1968;-72
2022/01/23 01:09:30;;;;;;;;;;;;;;;21.84;16.16;97910.34;4986783;28;1143;-72
2022/01/23 01:11:59;;;;;;;;;;;;;;;22.38;15.66;97920.09;5019701;28;930;-72
2022/01/23 01:35:34;;;;;;;;;;;;;;;22.06;15.74;97892.69;5076165;28;1086;-71
2022/01/23 01:38:00;;;;;;;;;;;;;;;22.47;15.56;97894.69;5076313;28;1092;-72
2022/01/23 01:40:25;;;;;;;;;;;;;;;22.24;15.69;97898.66;5073376;28;1383;-71
2022/01/23 01:42:53;;;;;;;;;;;;;;;21.50;16.36;97905.25;5073630;28;1221;-73
2022/01/23 01:45:20;;;;;;;;;;;;;;;21.84;15.97;97909.53;5073755;28;1436;-72
2022/01/23 01:47:55;;;;;;;;;;;;;;;21.78;15.76;97909.31;5072585;28;1898;-72
2022/01/23 01:50:20;;;;;;;;;;;;;;;22.09;15.81;97903.16;5058678;28;837;-72
2022/01/23 01:52:46;;;;;;;;;;;;;;;22.14;15.53;97905.44;5073874;28;1220;-71
2022/01/23 01:55:15;;;;;;;;;;;;;;;22.47;15.49;97916.59;5073600;28;1226;-72
2022/01/23 01:57:52;;;;;;;;;;;;;;;22.50;15.25;97921.34;5073436;28;1244;-72
2022/01/23 02:00:57;;;;;;;;;;;;;;;22.19;15.57;97924.72;5047157;28;987;-71
2022/01/23 02:08:50;;;;;;;;;;;;;;;21.51;15.86;97931.53;5038386;28;1977;-72
2022/01/23 02:11:48;;;;;;;;;;;;;;;22.39;15.44;97930.19;5019329;28;1238;-71
2022/01/23 02:14:31;;;;;;;;;;;;;;;21.68;16.06;97930.22;5020320;28;1119;-73
2022/01/23 02:55:20;;;;;;;;;;;;;;;21.90;15.80;97946.59;5015238;28;1158;-72
2022/01/23 03:00:17;;;;;;;;;;;;;;;22.46;15.28;97937.69;5015128;28;1298;-72
2022/01/23 03:03:05;;;;;;;;;;;;;;;22.39;15.28;97938.72;5015124;28;1007;-72
2022/01/23 03:05:38;;;;;;;;;;;;;;;22.30;15.31;97947.88;4995269;28;1144;-71
2022/01/23 03:08:19;;;;;;;;;;;;;;;22.57;14.99;97944.59;4995395;28;1978;-72
2022/01/23 03:10:58;;;;;;;;;;;;;;;22.13;15.43;97949.22;4995203;28;913;-72
2022/01/23 03:16:17;;;;;;;;;;;;;;;22.38;15.00;97953.31;5034408;28;912;-72
2022/01/23 03:24:28;;;;;;;;;;;;;;;22.33;15.12;97955.47;5034435;28;941;-71
2022/01/23 03:27:01;;;;;;;;;;;;;;;22.30;15.40;97953.53;4999343;28;1977;-72
2022/01/23 03:29:39;;;;;;;;;;;;;;;22.43;15.19;97958.41;4994941;28;928;-71
2022/01/23 03:32:19;;;;;;;;;;;;;;;22.46;14.85;97949.03;4994905;28;1086;-71
2022/01/23 03:34:45;;;;;;;;;;;;;;;22.59;15.08;97959.13;4994629;28;924;-71
2022/01/23 03:37:10;;;;;;;;;;;;;;;22.54;15.00;97961.75;4993272;28;962;-71
2022/01/23 03:39:36;;;;;;;;;;;;;;;22.25;15.37;97976.78;5013629;28;1169;-72
2022/01/23 03:42:01;;;;;;;;;;;;;;;22.36;15.20;97974.41;4994534;28;883;-73
2022/01/23 03:44:27;;;;;;;;;;;;;;;22.41;15.18;97977.94;4994829;28;979;-71
2022/01/23 03:49:31;;;;;;;;;;;;;;;22.61;14.77;97987.03;4981541;28;1320;-72
2022/01/23 03:51:59;;;;;;;;;;;;;;;21.92;15.42;97989.47;5014245;28;1450;-71
2022/01/23 03:54:26;;;;;;;;;;;;;;;21.92;15.50;97992.28;4997779;28;1463;-72
2022/01/23 03:56:55;;;;;;;;;;;;;;;22.02;15.35;97994.00;4956179;28;1116;-72
2022/01/23 03:59:20;;;;;;;;;;;;;;;22.16;15.22;97990.00;4936689;29;1055;-72
2022/01/23 04:01:45;;;;;;;;;;;;;;;22.39;15.12;97994.63;4952761;28;1202;-71
2022/01/23 04:04:28;;;;;;;;;;;;;;;21.96;15.60;97998.63;4936606;29;995;-71
2022/01/23 04:06:53;;;;;;;;;;;;;;;21.54;15.78;97993.69;4965497;28;1966;-72
2022/01/23 04:09:19;;;;;;;;;;;;;;;22.32;15.08;97996.38;4974974;28;957;-72
2022/01/23 04:11:45;;;;;;;;;;;;;;;22.38;15.02;97999.47;4974934;28;1352;-72
2022/01/23 04:14:13;;;;;;;;;;;;;;;22.17;15.42;97995.22;4994359;28;943;-72
2022/01/23 04:20:02;;;;;;;;;;;;;;;22.23;15.31;97999.13;5013626;28;1294;-71
2022/01/23 04:47:46;;;;;;;;;;;;;;;22.29;15.24;98014.31;4923249;29;1976;-73
2022/01/23 05:00:59;;;;;;;;;;;;;;;21.94;15.48;98035.91;4958729;28;995;-72
2022/01/23 05:06:21;;;;;;;;;;;;;;;21.98;15.73;98038.66;4972577;28;908;-72
2022/01/23 05:08:54;;;;;;;;;;;;;;;22.04;15.33;98048.19;4974668;28;1977;-71
2022/01/23 05:11:46;;;;;;;;;;;;;;;21.92;15.66;98048.94;4958711;28;988;-72
2022/01/23 05:14:26;;;;;;;;;;;;;;;22.25;15.28;98053.28;4970084;28;1669;-72
2022/01/23 05:16:51;;;;;;;;;;;;;;;22.43;15.21;98051.97;5000924;28;1212;-71
2022/01/23 05:19:17;;;;;;;;;;;;;;;22.25;15.51;98053.28;5000517;28;1123;-72
2022/01/23 05:24:19;;;;;;;;;;;;;;;22.56;15.02;98044.31;4977833;28;987;-72
2022/01/23 05:26:46;;;;;;;;;;;;;;;22.20;15.43;98055.88;4977751;28;937;-73
2022/01/23 05:29:12;;;;;;;;;;;;;;;21.86;15.39;98043.00;4961454;28;1979;-72
2022/01/23 05:31:37;;;;;;;;;;;;;;;21.85;15.74;98058.41;4977678;28;995;-72
2022/01/23 05:34:03;;;;;;;;;;;;;;;22.08;15.33;98060.25;4942053;29;1218;-72
2022/01/23 05:36:29;;;;;;;;;;;;;;;22.15;15.45;98062.91;4958785;29;890;-72
2022/01/23 05:38:55;;;;;;;;;;;;;;;22.25;15.23;98073.13;4894615;29;1069;-72
2022/01/23 05:41:21;;;;;;;;;;;;;;;22.22;15.02;98076.06;4901079;29;1631;-72
2022/01/23 05:43:47;;;;;;;;;;;;;;;22.37;15.05;98077.25;4900730;29;1228;-72
2022/01/23 05:46:13;;;;;;;;;;;;;;;21.77;15.63;98079.69;4854401;29;1357;-72
2022/01/23 05:48:54;;;;;;;;;;;;;;;21.53;15.63;98073.41;4900329;29;1911;-72
2022/01/23 05:51:38;;;;;;;;;;;;;;;21.89;15.55;98075.31;4904020;29;1080;-72
2022/01/23 05:54:03;;;;;;;;;;;;;;;21.65;15.73;98075.53;4957861;29;988;-73
2022/01/23 05:56:52;;;;;;;;;;;;;;;21.89;15.67;98072.50;4957611;29;1018;-72
2022/01/23 05:59:43;;;;;;;;;;;;;;;22.01;15.59;98083.09;4887653;29;1203;-72
2022/01/23 06:02:08;;;;;;;;;;;;;;;22.26;15.40;98083.22;4899608;29;1920;-72
2022/01/23 06:04:37;;;;;;;;;;;;;;;22.03;15.46;98087.06;4906442;29;1265;-72
2022/01/23 06:07:18;;;;;;;;;;;;;;;21.51;15.75;98098.56;4903302;29;1908;-72
2022/01/23 06:10:00;;;;;;;;;;;;;;;22.52;14.97;98106.78;4903334;29;1279;-72
2022/01/23 06:12:26;;;;;;;;;;;;;;;22.46;15.14;98108.59;4919241;29;1138;-72
2022/01/23 06:14:52;;;;;;;;;;;;;;;22.02;15.52;98113.81;4952656;28;1389;-72
2022/01/23 06:17:17;;;;;;;;;;;;;;;21.45;15.87;98112.44;4938081;29;1195;-72
2022/01/23 06:20:06;;;;;;;;;;;;;;;22.21;15.11;98114.94;4937951;29;956;-72
2022/01/23 06:22:51;;;;;;;;;;;;;;;21.91;15.70;98118.94;4905963;29;1071;-72
2022/01/23 06:25:45;;;;;;;;;;;;;;;22.04;15.49;98121.88;4917134;29;1137;-72
2022/01/23 06:28:40;;;;;;;;;;;;;;;22.10;15.45;98128.59;4918702;29;2375;-72
2022/01/23 06:31:06;;;;;;;;;;;;;;;21.74;15.65;98126.66;4900180;29;1411;-71
2022/01/23 06:33:32;;;;;;;;;;;;;;;22.08;15.57;98122.56;4887100;29;1823;-72
2022/01/23 06:35:57;;;;;;;;;;;;;;;22.14;15.40;98126.50;4862415;29;1057;-72
2022/01/23 06:38:23;;;;;;;;;;;;;;;21.77;15.39;98125.81;4847259;29;1272;-72
2022/01/23 06:40:51;;;;;;;;;;;;;;;22.36;15.47;98124.66;4847411;29;991;-72
2022/01/23 06:43:43;;;;;;;;;;;;;;;22.06;15.50;98113.72;4862605;29;1086;-72
2022/01/23 06:46:13;;;;;;;;;;;;;;;22.72;15.00;98120.00;4847390;29;1249;-73
2022/01/23 06:48:39;;;;;;;;;;;;;;;23.11;14.37;98114.00;4846856;29;1988;-72
2022/01/23 06:51:05;;;;;;;;;;;;;;;22.76;14.95;98115.84;4899304;29;1126;-72
2022/01/23 06:53:33;;;;;;;;;;;;;;;22.57;14.97;98103.41;4899460;29;1286;-72
2022/01/23 06:55:59;;;;;;;;;;;;;;;22.75;15.00;98097.22;4881069;29;1133;-73
2022/01/23 06:58:25;;;;;;;;;;;;;;;22.72;14.95;98103.78;4882644;29;998;-72
2022/01/23 07:00:53;;;;;;;;;;;;;;;22.57;14.72;98108.28;4899806;29;1034;-72
2022/01/23 07:03:28;;;;;;;;;;;;;;;21.84;15.50;98108.59;4882588;29;1086;-72
2022/01/23 07:06:25;;;;;;;;;;;;;;;21.73;15.73;98105.25;4918125;29;1146;-72
2022/01/23 07:08:59;;;;;;;;;;;;;;;21.68;15.61;98105.00;4918408;29;1906;-72
2022/01/23 07:12:00;;;;;;;;;;;;;;;21.68;15.56;98105.00;4880701;29;994;-72
2022/01/23 07:14:44;;;;;;;;;;;;;;;22.42;15.35;98107.09;4917008;29;1041;-72
2022/01/23 07:17:29;;;;;;;;;;;;;;;22.28;15.30;98126.13;4918154;29;1077;-72
2022/01/23 07:20:01;;;;;;;;;;;;;;;22.38;15.07;98123.41;4898928;29;1109;-72
2022/01/23 07:22:31;;;;;;;;;;;;;;;22.09;15.54;98127.00;4949909;29;1088;-72
2022/01/23 07:25:01;;;;;;;;;;;;;;;22.40;15.06;98121.72;4969508;28;1255;-72
2022/01/23 07:27:29;;;;;;;;;;;;;;;22.39;15.13;98125.81;4941999;29;1980;-72
2022/01/23 07:29:55;;;;;;;;;;;;;;;22.45;15.18;98129.69;4937110;29;932;-72
2022/01/23 07:32:21;;;;;;;;;;;;;;;22.43;15.22;98139.88;4917862;29;1086;-72
2022/01/23 07:34:46;;;;;;;;;;;;;;;22.13;15.33;98129.78;4890433;29;1462;-72
2022/01/23 07:37:16;;;;;;;;;;;;;;;22.34;15.28;98135.66;4899050;29;1009;-72
2022/01/23 07:39:45;;;;;;;;;;;;;;;21.88;15.47;98136.84;4898753;29;947;-73
2022/01/23 07:42:18;;;;;;;;;;;;;;;21.70;15.59;98137.28;4900204;29;1195;-73
2022/01/23 07:45:06;;;;;;;;;;;;;;;22.49;14.98;98135.28;4920050;29;1345;-72
2022/01/23 07:47:58;;;;;;;;;;;;;;;23.14;14.50;98134.97;4943129;29;1906;-72
2022/01/23 07:50:35;;;;;;;;;;;;;;;22.29;14.96;98139.03;4956214;29;1089;-72
2022/01/23 07:53:04;;;;;;;;;;;;;;;22.44;14.98;98138.66;4948567;28;1184;-71
2022/01/23 07:55:58;;;;;;;;;;;;;;;22.07;15.51;98143.63;4934068;29;1136;-72
2022/01/23 07:58:42;;;;;;;;;;;;;;;22.71;14.87;98141.91;4936282;29;1179;-72
2022/01/23 08:01:36;;;;;;;;;;;;;;;22.74;14.77;98143.88;4936756;29;1145;-72
2022/01/23 08:04:36;;;;;;;;;;;;;;;22.35;14.97;98151.41;4955399;28;1019;-73
2022/01/23 08:07:22;;;;;;;;;;;;;;;22.27;15.01;98152.84;4955824;29;1898;-72
2022/01/23 08:10:16;;;;;;;;;;;;;;;22.86;14.84;98145.94;4911749;29;1156;-72
2022/01/23 08:12:42;;;;;;;;;;;;;;;23.18;14.13;98138.50;4898306;29;1016;-72
2022/01/23 08:15:08;;;;;;;;;;;;;;;22.55;14.96;98144.81;4898626;29;1020;-72
2022/01/23 08:17:33;;;;;;;;;;;;;;;22.31;15.09;98139.38;4879945;29;979;-72
2022/01/23 08:19:59;;;;;;;;;;;;;;;22.19;15.30;98131.63;4898043;29;1036;-72
2022/01/23 08:22:25;;;;;;;;;;;;;;;22.68;14.76;98139.16;4898576;29;985;-72
2022/01/23 08:24:51;;;;;;;;;;;;;;;22.96;14.33;98131.91;4870110;29;1025;-72
2022/01/23 08:27:16;;;;;;;;;;;;;;;22.01;15.38;98126.38;4864809;29;1978;-72
2022/01/23 08:29:42;;;;;;;;;;;;;;;21.72;15.40;98123.50;4864892;29;1022;-72
2022/01/23 08:32:07;;;;;;;;;;;;;;;22.18;15.26;98115.88;4864899;29;1171;-72
2022/01/23 08:34:33;;;;;;;;;;;;;;;22.19;15.24;98123.13;4853226;29;1048;-72
2022/01/23 08:36:58;;;;;;;;;;;;;;;22.51;14.78;98115.75;4828343;29;1238;-72
2022/01/23 08:39:26;;;;;;;;;;;;;;;22.01;15.21;98114.25;4861751;29;1230;-72
2022/01/23 08:41:51;;;;;;;;;;;;;;;22.16;15.29;98117.53;4883321;29;1066;-72
2022/01/23 08:44:17;;;;;;;;;;;;;;;21.66;15.69;98119.63;4896774;29;982;-72
2022/01/23 08:46:42;;;;;;;;;;;;;;;21.84;15.61;98117.09;4873725;29;998;-72
2022/01/23 08:49:08;;;;;;;;;;;;;;;22.49;14.93;98119.03;4864720;29;1895;-72
2022/01/23 08:51:33;;;;;;;;;;;;;;;21.96;15.47;98120.47;4882974;29;1000;-72
2022/01/23 08:53:59;;;;;;;;;;;;;;;22.40;14.93;98120.94;4848788;29;1158;-72
2022/01/23 08:56:25;;;;;;;;;;;;;;;22.39;14.75;98130.69;4883057;29;1007;-73
2022/01/23 08:58:50;;;;;;;;;;;;;;;22.14;15.24;98123.66;4898479;29;1661;-72
2022/01/23 09:01:16;;;;;;;;;;;;;;;22.29;15.20;98124.88;4884526;29;1060;-72
2022/01/23 09:03:42;;;;;;;;;;;;;;;21.96;15.20;98123.28;4903187;29;998;-72
2022/01/23 09:06:08;;;;;;;;;;;;;;;21.81;15.55;98125.69;4920634;29;945;-72
2022/01/23 09:08:36;;;;;;;;;;;;;;;22.00;15.19;98132.50;4920364;29;1915;-72
2022/01/23 09:11:08;;;;;;;;;;;;;;;21.86;15.35;98128.00;4904845;29;1609;-73
2022/01/23 09:13:53;;;;;;;;;;;;;;;21.99;15.41;98122.41;4920117;29;954;-72
2022/01/23 09:16:18;;;;;;;;;;;;;;;22.40;14.87;98110.38;4938080;29;1044;-72
2022/01/23 09:18:43;;;;;;;;;;;;;;;21.62;15.33;98112.44;4974824;28;843;-72
2022/01/23 09:21:10;;;;;;;;;;;;;;;21.75;15.74;98110.47;4978223;28;1098;-72
2022/01/23 09:23:35;;;;;;;;;;;;;;;21.78;15.54;98109.59;5014407;28;969;-73
2022/01/23 09:26:07;;;;;;;;;;;;;;;22.36;14.87;98098.34;5055745;28;1015;-72
2022/01/23 09:28:33;;;;;;;;;;;;;;;22.47;14.94;98115.84;5058846;28;1979;-72
2022/01/23 09:30:59;;;;;;;;;;;;;;;22.00;15.15;98104.97;5059002;28;865;-73
2022/01/23 09:33:24;;;;;;;;;;;;;;;22.64;14.68;98108.09;5058570;28;960;-73
2022/01/23 09:35:50;;;;;;;;;;;;;;;22.54;15.09;98103.53;5058521;28;909;-73
2022/01/23 09:38:15;;;;;;;;;;;;;;;21.95;15.38;98101.88;5057736;28;1103;-73
2022/01/23 09:40:41;;;;;;;;;;;;;;;22.27;14.96;98099.00;5058990;28;983;-73
2022/01/23 09:43:12;;;;;;;;;;;;;;;21.98;15.46;98084.00;5058615;28;931;-73
2022/01/23 09:45:38;;;;;;;;;;;;;;;21.58;15.62;98085.00;5074082;28;982;-73
2022/01/23 09:48:04;;;;;;;;;;;;;;;22.00;15.35;98075.84;5058168;28;1972;-73
2022/01/23 09:50:29;;;;;;;;;;;;;;;22.53;14.98;98079.22;5058902;28;954;-73
2022/01/23 09:52:55;;;;;;;;;;;;;;;22.36;14.76;98070.00;5058156;28;930;-73
2022/01/23 09:55:21;;;;;;;;;;;;;;;22.13;15.00;98075.94;5058493;28;1036;-73
2022/01/23 09:57:47;;;;;;;;;;;;;;;22.17;15.19;98085.91;5058438;28;1116;-73
2022/01/23 10:00:14;;;;;;;;;;;;;;;22.33;15.07;98077.38;5058334;28;891;-73
2022/01/23 10:02:39;;;;;;;;;;;;;;;22.65;14.87;98074.84;5058114;28;893;-73
2022/01/23 10:05:05;;;;;;;;;;;;;;;22.36;15.12;98082.13;5058182;28;952;-74
2022/01/23 10:07:31;;;;;;;;;;;;;;;22.41;15.17;98082.84;5072417;28;1914;-73
2022/01/23 10:10:09;;;;;;;;;;;;;;;22.69;14.84;98082.00;5058594;28;922;-73
2022/01/23 10:12:35;;;;;;;;;;;;;;;22.16;15.03;98084.31;5057934;28;1019;-73
2022/01/23 10:15:01;;;;;;;;;;;;;;;22.04;15.34;98079.38;5081959;28;2047;-72
2022/01/23 10:17:26;;;;;;;;;;;;;;;22.54;15.16;98092.97;5090098;28;1343;-72
2022/01/23 10:19:52;;;;;;;;;;;;;;;22.29;15.20;98087.22;5057631;28;1081;-72
2022/01/23 10:22:18;;;;;;;;;;;;;;;22.45;14.98;98075.03;5061686;28;980;-72
2022/01/23 10:24:43;;;;;;;;;;;;;;;21.71;15.51;98082.25;5078988;28;996;-73
2022/01/23 10:27:09;;;;;;;;;;;;;;;22.18;15.32;98081.06;5095733;28;1988;-73
2022/01/23 10:29:37;;;;;;;;;;;;;;;22.29;15.29;98079.50;5095653;28;986;-73
2022/01/23 10:32:02;;;;;;;;;;;;;;;22.26;15.44;98074.72;5078928;28;915;-73
2022/01/23 10:34:39;;;;;;;;;;;;;;;22.16;15.39;98072.97;5095358;28;1005;-73
2022/01/23 10:37:05;;;;;;;;;;;;;;;21.88;15.61;98076.56;5095519;28;990;-73
2022/01/23 10:39:40;;;;;;;;;;;;;;;22.34;15.12;98078.97;5095364;28;931;-73
2022/01/23 10:42:49;;;;;;;;;;;;;;;22.20;15.15;98070.84;5078602;28;916;-73
2022/01/23 10:48:13;;;;;;;;;;;;;;;22.37;15.07;98060.25;5094776;28;1902;-73
2022/01/23 10:50:38;;;;;;;;;;;;;;;21.83;15.83;98056.03;5080633;28;993;-72
2022/01/23 10:53:04;;;;;;;;;;;;;;;22.45;14.88;98055.19;5079399;28;1025;-73
2022/01/23 10:55:30;;;;;;;;;;;;;;;21.97;15.29;98048.41;5055643;28;967;-72
2022/01/23 10:57:58;;;;;;;;;;;;;;;21.90;15.34;98042.91;5054745;28;1151;-73
2022/01/23 11:00:36;;;;;;;;;;;;;;;22.38;15.20;98049.69;5057297;28;951;-73
2022/01/23 11:03:21;;;;;;;;;;;;;;;22.42;15.06;98044.72;5074474;28;1063;-73
2022/01/23 11:05:48;;;;;;;;;;;;;;;22.22;15.36;98068.34;5074583;28;942;-73
2022/01/23 11:08:19;;;;;;;;;;;;;;;22.51;15.06;98064.72;5074653;28;1914;-73
2022/01/23 11:10:55;;;;;;;;;;;;;;;22.35;15.28;98074.09;5074735;28;974;-73
2022/01/23 11:19:19;;;;;;;;;;;;;;;22.51;14.87;98059.03;5074885;28;954;-73
2022/01/23 11:21:44;;;;;;;;;;;;;;;22.44;15.13;98064.94;5074412;28;998;-73
2022/01/23 11:24:11;;;;;;;;;;;;;;;22.05;15.46;98063.97;5074608;28;1060;-74
2022/01/23 11:26:36;;;;;;;;;;;;;;;21.97;15.42;98051.25;5057776;28;984;-73
2022/01/23 11:29:09;;;;;;;;;;;;;;;22.12;15.08;98060.94;5074085;28;1969;-72
2022/01/23 11:31:35;;;;;;;;;;;;;;;22.42;15.01;98056.06;5074545;28;984;-72
2022/01/23 11:34:02;;;;;;;;;;;;;;;22.07;15.19;98055.78;5065052;28;937;-72
2022/01/23 11:36:28;;;;;;;;;;;;;;;22.06;15.57;98051.38;5088584;28;965;-73
2022/01/23 11:38:59;;;;;;;;;;;;;;;22.39;14.83;98051.31;5056379;28;967;-73
2022/01/23 11:55:06;;;;;;;;;;;;;;;22.42;15.12;98050.41;5056343;28;989;-73
2022/01/23 11:57:35;;;;;;;;;;;;;;;22.16;15.33;98044.66;5093887;28;1005;-73
2022/01/23 12:00:24;;;;;;;;;;;;;;;22.10;15.43;98040.75;5093546;28;990;-73
2022/01/23 12:03:08;;;;;;;;;;;;;;;22.47;14.83;98047.00;5094120;28;1122;-73
2022/01/23 12:05:34;;;;;;;;;;;;;;;21.98;15.35;98045.13;5094151;28;1012;-74
2022/01/23 12:08:18;;;;;;;;;;;;;;;22.32;15.27;98040.94;5094272;28;1905;-73
2022/01/23 12:11:15;;;;;;;;;;;;;;;22.13;15.33;98045.56;5093894;28;1026;-72
2022/01/23 12:18:51;;;;;;;;;;;;;;;22.48;14.98;98043.72;5053432;28;996;-73
2022/01/23 12:21:29;;;;;;;;;;;;;;;22.50;15.09;98048.94;5033294;28;959;-73
2022/01/23 12:24:04;;;;;;;;;;;;;;;22.36;15.13;98041.66;5053793;28;908;-73
2022/01/23 12:26:30;;;;;;;;;;;;;;;22.20;15.19;98051.00;5053302;28;928;-73
2022/01/23 12:28:55;;;;;;;;;;;;;;;21.97;15.43;98048.41;5040183;28;1905;-73
2022/01/23 12:31:23;;;;;;;;;;;;;;;22.05;15.04;98044.13;5033910;28;1033;-74
2022/01/23 12:33:49;;;;;;;;;;;;;;;22.53;14.96;98048.03;5033884;28;923;-72
2022/01/23 12:36:15;;;;;;;;;;;;;;;22.13;15.29;98048.38;5033691;28;969;-72
2022/01/23 12:39:00;;;;;;;;;;;;;;;22.45;14.76;98049.50;5033829;28;1089;-73
2022/01/23 12:41:32;;;;;;;;;;;;;;;21.84;15.26;98057.63;4994152;28;1144;-73
2022/01/23 12:44:07;;;;;;;;;;;;;;;22.23;15.31;98058.63;4994281;28;1296;-73
2022/01/23 12:46:34;;;;;;;;;;;;;;;22.07;15.14;98067.94;4994563;28;1066;-73
2022/01/23 12:49:15;;;;;;;;;;;;;;;21.78;15.10;98076.41;4993941;28;1906;-73
2022/01/23 12:51:42;;;;;;;;;;;;;;;22.05;15.01;98087.41;4994188;28;1015;-73
2022/01/23 12:54:11;;;;;;;;;;;;;;;22.08;15.15;98088.56;4994220;28;928;-73
2022/01/23 12:56:44;;;;;;;;;;;;;;;22.51;14.98;98093.06;4994121;28;1072;-73
2022/01/23 12:59:13;;;;;;;;;;;;;;;22.52;14.79;98092.63;4993857;28;1072;-73
2022/01/23 13:01:42;;;;;;;;;;;;;;;22.43;14.92;98091.66;4994275;28;982;-73
2022/01/23 13:04:08;;;;;;;;;;;;;;;22.32;14.87;98109.78;4994066;28;951;-72
2022/01/23 13:09:51;;;;;;;;;;;;;;;22.33;14.79;98100.06;4955339;29;1105;-73
2022/01/23 13:12:32;;;;;;;;;;;;;;;22.60;14.50;98090.38;4957959;28;1042;-73
2022/01/23 13:31:52;;;;;;;;;;;;;;;22.48;15.00;98110.97;5016745;28;1019;-73
2022/01/23 13:34:37;;;;;;;;;;;;;;;22.16;14.92;98115.50;5016479;28;963;-73
2022/01/23 13:37:03;;;;;;;;;;;;;;;21.88;15.30;98113.41;5016513;28;970;-74
2022/01/23 13:39:43;;;;;;;;;;;;;;;22.21;15.03;98114.16;5016359;28;969;-73
2022/01/23 13:42:23;;;;;;;;;;;;;;;22.56;14.80;98118.03;5016348;28;948;-73
2022/01/23 13:53:25;;;;;;;;;;;;;;;22.13;14.98;98112.78;5036447;28;942;-73
2022/01/23 13:58:37;;;;;;;;;;;;;;;22.11;14.87;98110.38;5035885;28;1135;-73
2022/01/23 14:01:18;;;;;;;;;;;;;;;22.21;15.05;98117.78;5036294;28;974;-72
2022/01/23 14:03:43;;;;;;;;;;;;;;;22.15;15.20;98122.41;5035505;28;961;-72
2022/01/23 14:06:09;;;;;;;;;;;;;;;21.89;15.15;98126.31;5036323;28;908;-72
2022/01/23 14:08:34;;;;;;;;;;;;;;;22.40;14.98;98120.94;5045208;28;1902;-74
2022/01/23 14:11:00;;;;;;;;;;;;;;;22.53;14.70;98124.59;5058282;28;904;-72
2022/01/23 14:13:25;;;;;;;;;;;;;;;22.42;14.95;98124.09;5057995;28;930;-72
2022/01/23 14:15:51;;;;;;;;;;;;;;;21.50;15.68;98128.06;5057813;28;947;-73
2022/01/23 14:18:24;;;;;;;;;;;;;;;22.25;15.05;98124.16;5090125;28;1114;-73
2022/01/23 14:20:57;;;;;;;;;;;;;;;21.89;15.37;98129.94;5075512;28;1131;-73
2022/01/23 14:23:23;;;;;;;;;;;;;;;22.16;15.20;98135.34;5034442;28;1009;-72
2022/01/23 14:25:58;;;;;;;;;;;;;;;21.97;15.17;98133.41;5015322;28;908;-73
2022/01/23 14:28:28;;;;;;;;;;;;;;;22.53;14.73;98130.28;5015666;28;1914;-73
2022/01/23 14:30:58;;;;;;;;;;;;;;;22.33;14.76;98127.59;5012746;28;1489;-72
2022/01/23 14:33:31;;;;;;;;;;;;;;;21.96;14.90;98131.78;4995146;28;1321;-72
2022/01/23 14:35:56;;;;;;;;;;;;;;;22.30;14.87;98129.28;4976065;28;923;-73
2022/01/23 14:38:24;;;;;;;;;;;;;;;22.14;15.30;98132.16;4976535;28;963;-73
2022/01/23 14:40:52;;;;;;;;;;;;;;;22.22;15.13;98139.22;4976734;28;1004;-73
2022/01/23 14:43:18;;;;;;;;;;;;;;;22.33;14.82;98134.06;4976488;28;974;-73
2022/01/23 14:45:47;;;;;;;;;;;;;;;22.16;14.99;98135.34;4976128;28;994;-72
2022/01/23 14:48:15;;;;;;;;;;;;;;;21.44;15.90;98132.69;4975921;28;1971;-74
2022/01/23 14:50:41;;;;;;;;;;;;;;;21.98;15.33;98129.31;4976495;28;970;-73
2022/01/23 14:53:11;;;;;;;;;;;;;;;21.85;15.42;98144.19;4979322;28;1012;-73
2022/01/23 14:55:36;;;;;;;;;;;;;;;22.25;15.07;98158.16;4995889;28;949;-73
2022/01/23 14:58:03;;;;;;;;;;;;;;;22.14;15.14;98154.84;5014757;28;1094;-73
2022/01/23 15:00:29;;;;;;;;;;;;;;;22.46;14.91;98148.28;5015445;28;966;-73
2022/01/23 15:02:55;;;;;;;;;;;;;;;22.32;14.74;98160.81;5014828;28;951;-73
2022/01/23 15:05:21;;;;;;;;;;;;;;;21.81;15.46;98166.16;5053506;28;951;-73
2022/01/23 15:07:46;;;;;;;;;;;;;;;22.33;14.99;98173.75;5056916;28;1961;-73
2022/01/23 15:10:12;;;;;;;;;;;;;;;22.01;15.14;98173.75;5056912;28;886;-72
2022/01/23 15:12:38;;;;;;;;;;;;;;;21.91;15.20;98180.47;5056554;28;943;-73
2022/01/23 15:15:04;;;;;;;;;;;;;;;22.49;14.96;98189.16;5056985;28;923;-73
2022/01/23 15:17:29;;;;;;;;;;;;;;;22.40;14.69;98194.66;5057148;28;919;-73
2022/01/23 15:19:55;;;;;;;;;;;;;;;22.17;15.12;98193.59;5057170;28;939;-73
2022/01/23 15:22:21;;;;;;;;;;;;;;;22.05;15.06;98191.47;5057768;28;891;-73
2022/01/23 15:24:47;;;;;;;;;;;;;;;22.32;15.00;98206.16;5056703;28;893;-74
2022/01/23 15:27:13;;;;;;;;;;;;;;;22.38;15.02;98206.41;5057341;28;1972;-74
2022/01/23 15:29:38;;;;;;;;;;;;;;;22.26;15.07;98207.94;5056824;28;855;-73
2022/01/23 15:32:04;;;;;;;;;;;;;;;22.43;14.93;98205.09;5057161;28;914;-73
2022/01/23 15:34:30;;;;;;;;;;;;;;;22.94;14.65;98199.66;5055921;28;901;-74
2022/01/23 15:36:56;;;;;;;;;;;;;;;22.75;14.56;98204.22;5021900;28;959;-73
2022/01/23 15:39:22;;;;;;;;;;;;;;;22.34;14.89;98203.69;5056579;28;971;-74
2022/01/23 15:41:48;;;;;;;;;;;;;;;22.35;15.26;98205.28;5056664;28;991;-73
2022/01/23 15:44:13;;;;;;;;;;;;;;;22.12;15.36;98202.63;5056696;28;850;-73
2022/01/23 15:46:39;;;;;;;;;;;;;;;22.16;15.40;98202.56;5056626;28;900;-74
2022/01/23 15:49:05;;;;;;;;;;;;;;;22.09;15.32;98206.34;5056062;28;1906;-74
2022/01/23 15:51:30;;;;;;;;;;;;;;;22.12;15.42;98213.97;5056633;28;928;-73
2022/01/23 15:53:56;;;;;;;;;;;;;;;21.94;15.61;98213.59;5056457;28;971;-73
2022/01/23 15:56:21;;;;;;;;;;;;;;;22.27;15.34;98208.75;5056767;28;1013;-74
2022/01/23 15:58:47;;;;;;;;;;;;;;;22.19;15.26;98225.16;5056541;28;1209;-74
2022/01/23 16:01:12;;;;;;;;;;;;;;;21.54;15.71;98219.41;5056561;28;1131;-74
2022/01/23 16:03:38;;;;;;;;;;;;;;;22.19;15.42;98213.81;5056034;28;943;-74
2022/01/23 16:06:03;;;;;;;;;;;;;;;21.97;15.47;98218.41;5056672;28;883;-73
2022/01/23 16:08:29;;;;;;;;;;;;;;;21.52;16.04;98221.88;5055905;28;1985;-74
2022/01/23 16:10:54;;;;;;;;;;;;;;;21.97;15.70;98224.06;5070676;28;1239;-73
2022/01/23 16:13:20;;;;;;;;;;;;;;;22.32;15.22;98228.84;5075469;28;1272;-74
2022/01/23 16:15:45;;;;;;;;;;;;;;;22.31;15.21;98227.25;5075826;28;1272;-74
2022/01/23 16:18:11;;;;;;;;;;;;;;;22.43;15.15;98222.09;5074748;28;1209;-73
2022/01/23 16:20:38;;;;;;;;;;;;;;;21.95;15.49;98220.88;5074964;28;1367;-74
2022/01/23 16:23:03;;;;;;;;;;;;;;;22.44;15.14;98229.38;5053573;28;1296;-74
2022/01/23 16:25:29;;;;;;;;;;;;;;;21.99;15.69;98227.25;5056414;28;928;-75
2022/01/23 16:27:54;;;;;;;;;;;;;;;22.00;15.42;98223.16;5056079;28;1906;-74
2022/01/23 16:30:21;;;;;;;;;;;;;;;22.38;15.26;98219.78;5055687;28;880;-74